Get Adobe Flash player

РУС

ENG

 
  Pireps - S7
 

Рейс SBIS7 1083

  • Выполнял: Andrew Vyunov
  • Аэропорт отправления: Pulkovo Airport (ULLI)
  • Аэропорт назначения: Domodedovo Airport (UUDD)
  • Тип ВС: A320-214 (VQ-BET)
  • Время полёта: 01.14
  • Дата полёта: 23.10.2018
  • Маршрут: OKUDI B160 DB R369 AJ R804 BG R811 FK UM GISIN BESTA RUGEL GEKLA
  • Статус: Одобрен

Детали полёта
Gross Revenue:
(135 load / $ 900.00 per unit
$ 121,500.00
Fuel Cost:
(3957 fuel used @ 5.1 / unit)
$ 20,180.70


Дополнительная информация о полёте:

Лог

Aircraft Used in flight is Airbus A320-214 CFM Sharklets Airbus house color
19:08 Boarding
19:08 Engine 1 Started
19:08 Engine 2 Started
19:08 Strobe Lights ON at 90 AGL
19:08 Navigation Lights ON at 90 AGL
19:08 Beacon Lights ON at 90 AGL
19:08 Brakes are On
19:10 Brakes are Released
19:10 Taxi Lights ON at 90 AGL
19:16Flaps 1 Selected at 90ft and 0kts
19:16Flaps 2 Selected at 90ft and 0kts
19:16Flaps 3 Selected at 90ft and 0kts
19:17 Landing Lights ON at 90 AGL
19:19 You Took off @ 180 Knots and Flaps at Position 3
Departure Weather
ULLI 231600Z 11004MPS 9999 -SHRA BKN013CB BKN046 05/03 Q0991 R88/090060 NOSIGrn
19:19 Landing Gear Up @ 199 Knots and 530 Feet
19:20Flaps 2 Selected at 1060ft and 214kts
19:20Flaps 1 Selected at 1600ft and 232kts
19:21 Taxi Lights OFF at 3720 AGL
19:21 Landing Lights OFF at 3850 AGL
19:22Flaps Retracted at 6680ft and 243kts
19:42 Overspeed
19:43 Recovered from Overspeed
19:44 Overspeed
19:44 Recovered from Overspeed
20:11Flaps 1 Selected at 9210ft and 200kts
20:11Flaps 2 Selected at 9080ft and 201kts
20:11Flaps 3 Selected at 8640ft and 200kts
20:14 Landing Gear Down @ 196 Knots and 4240 Feet
20:16 Taxi Lights ON at 2890 AGL
20:16 Landing Lights ON at 2880 AGL
20:18Flaps 5 Selected at 2610ft and 181kts
20:21 You Landed @ 130 Knots and with -250 Vertical Speed
Arrival Weather
UUDD 231530Z 22003MPS 180V240 5000 -RA BKN003 OVC026 04/03 Q1000 R88/290095 NOSIGrn
20:22 Taxiing to gate
20:22 Brakes are On
20:22 Taxi Lights OFF at 600 AGL
20:22 Landing Lights OFF at 600 AGL
Pirep logged with S7 Tracking 1.0.0.13


!!! Превышение допустимого значения вертикальной скорости при посадке: -5%


Общая оценка полета : 95%




Route Map



 
 
   
 
Новости

26.04.2018 - Полеты в X-PLANE

Наш клиент S7 Pad поддерживает полеты как в MFSX, Prepar3d V4, так и в X-PLANE 10 и 11 версиях!
На нашем сайте в разреде загруки есть плагин XPUIPIC for X-plane.
Приятных Вам полетов и мягких посадок!

   
 
Авторизация






Регистрация

Восстановить пароль?

Мы в соц. сетях

      



   
  TeamSpeak3 ts.va-s7.ru


   
 

   
 



   
 


Яндекс.Метрика

www.va-s7.ru 2011-2017
Все права защищены.



Минуточку внимания!
Мы не имеем отношения к торговым маркам "S7" и "Globus" и их представителям.
Эмблемы на сайте являются собственностью соответствующих компаний.

аэронавигационная метеорологическая и любая другая информация с данного ресурса ни в коем случае не должна использоваться для реальных полетов